createdAt,value
2023-01-31T00:00:57.022Z,75.45
2023-01-31T00:03:28.029Z,75.29
2023-01-31T00:05:59.272Z,74.81
2023-01-31T00:08:30.504Z,74.96
2023-01-31T00:11:02.771Z,74.85
2023-01-31T00:13:33.517Z,75.00
2023-01-31T00:16:04.762Z,75.65
2023-01-31T00:18:36.083Z,74.93
2023-01-31T00:21:14.456Z,75.42
2023-01-31T00:23:46.836Z,75.47
2023-01-31T00:26:19.075Z,75.21
2023-01-31T00:28:51.343Z,75.17
2023-01-31T00:31:24.144Z,75.53
2023-01-31T00:33:56.406Z,75.34
2023-01-31T00:36:30.320Z,75.47
2023-01-31T00:39:02.557Z,75.33
2023-01-31T00:41:34.809Z,75.00
2023-01-31T00:44:06.590Z,75.03
2023-01-31T00:46:38.122Z,74.97
2023-01-31T00:49:09.476Z,75.07
2023-01-31T00:51:40.279Z,75.05
2023-01-31T00:54:11.020Z,75.24
2023-01-31T00:56:41.817Z,75.30
2023-01-31T00:59:13.207Z,75.20
2023-01-31T01:01:44.130Z,75.14
2023-01-31T01:04:16.151Z,74.95
2023-01-31T01:06:50.425Z,75.09
2023-01-31T01:09:22.884Z,74.41
2023-01-31T01:11:53.712Z,74.12
2023-01-31T01:14:24.965Z,73.52
2023-01-31T01:16:58.425Z,73.08
2023-01-31T01:19:29.434Z,72.91
2023-01-31T01:22:01.166Z,72.61
2023-01-31T01:24:32.141Z,72.92
2023-01-31T01:27:05.094Z,73.42
2023-01-31T01:29:36.376Z,73.01
2023-01-31T01:32:08.452Z,72.52
2023-01-31T01:34:39.432Z,73.15
2023-01-31T01:37:20.189Z,73.12
2023-01-31T01:39:52.034Z,73.45
2023-01-31T01:42:25.115Z,74.23
2023-01-31T01:44:58.978Z,74.72
2023-01-31T01:47:44.619Z,74.83
2023-01-31T01:50:17.999Z,75.19
2023-01-31T01:52:53.093Z,75.49
2023-01-31T01:55:30.559Z,76.38
2023-01-31T01:58:07.446Z,76.10
2023-01-31T02:00:39.624Z,76.73
2023-01-31T02:03:10.997Z,76.75
2023-01-31T02:05:44.897Z,76.65
2023-01-31T02:08:18.528Z,76.74
2023-01-31T02:10:54.660Z,77.11
2023-01-31T02:13:28.340Z,76.83
2023-01-31T02:16:00.126Z,77.25
2023-01-31T02:18:31.337Z,77.40
2023-01-31T02:21:33.148Z,77.83
2023-01-31T02:24:32.831Z,77.51
2023-01-31T02:27:38.248Z,77.83
2023-01-31T02:30:36.128Z,77.75
2023-01-31T02:33:22.933Z,77.22
2023-01-31T02:36:02.575Z,77.48
2023-01-31T02:38:45.709Z,77.11
2023-01-31T02:41:22.076Z,76.69
2023-01-31T02:44:16.037Z,77.12
2023-01-31T02:46:56.355Z,76.67
2023-01-31T02:49:39.529Z,76.38
2023-01-31T02:52:23.813Z,76.46
2023-01-31T02:55:26.770Z,75.66
2023-01-31T02:58:00.983Z,75.41
2023-01-31T03:00:36.757Z,75.17
2023-01-31T03:03:09.763Z,75.04
2023-01-31T03:05:42.777Z,74.67
2023-01-31T03:08:16.387Z,74.72
2023-01-31T03:11:03.976Z,74.75
2023-01-31T03:13:44.120Z,74.44
2023-01-31T03:16:47.082Z,74.14
2023-01-31T03:19:22.337Z,74.98
2023-01-31T03:22:02.195Z,74.66
2023-01-31T03:24:34.248Z,74.60
2023-01-31T03:27:06.514Z,74.70
2023-01-31T03:29:39.665Z,74.55
2023-01-31T03:32:18.263Z,74.98
2023-01-31T03:34:51.213Z,75.45
2023-01-31T03:37:26.409Z,75.57
2023-01-31T03:40:05.775Z,75.88
2023-01-31T03:42:43.284Z,76.15
2023-01-31T03:45:19.706Z,76.37
2023-01-31T03:47:52.736Z,76.04
2023-01-31T03:50:27.759Z,76.18
2023-01-31T03:53:03.731Z,76.42
2023-01-31T03:55:41.066Z,76.63
2023-01-31T03:58:14.298Z,76.87
2023-01-31T04:00:47.243Z,77.15
2023-01-31T04:03:24.878Z,77.75
2023-01-31T04:05:55.969Z,77.74
2023-01-31T04:08:27.492Z,78.03
2023-01-31T04:11:07.638Z,78.06
2023-01-31T04:13:38.783Z,78.51
2023-01-31T04:16:11.312Z,78.36
2023-01-31T04:18:42.104Z,78.51
2023-01-31T04:21:14.657Z,78.51
2023-01-31T04:23:45.314Z,78.90
2023-01-31T04:26:16.240Z,79.16
2023-01-31T04:28:47.305Z,79.50
2023-01-31T04:31:17.988Z,79.66
2023-01-31T04:33:48.757Z,79.49
2023-01-31T04:36:19.425Z,79.71
2023-01-31T04:38:50.036Z,79.69
2023-01-31T04:41:20.741Z,80.36
2023-01-31T04:43:51.431Z,79.61
2023-01-31T04:46:22.538Z,80.00
2023-01-31T04:48:53.172Z,80.03
2023-01-31T04:51:23.831Z,79.84
2023-01-31T04:53:54.402Z,79.79
2023-01-31T04:56:25.113Z,80.00
2023-01-31T04:58:56.080Z,79.62
2023-01-31T05:01:27.258Z,79.53
2023-01-31T05:03:57.983Z,79.30
2023-01-31T05:06:28.950Z,79.50
2023-01-31T05:09:01.435Z,79.18
2023-01-31T05:11:32.022Z,78.66
2023-01-31T05:14:02.623Z,78.75
2023-01-31T05:16:33.386Z,78.38
2023-01-31T05:19:04.265Z,78.24
2023-01-31T05:21:55.055Z,78.78
2023-01-31T05:24:26.753Z,78.49
2023-01-31T05:26:59.094Z,77.83
2023-01-31T05:29:32.443Z,77.29
2023-01-31T05:32:04.400Z,78.13
2023-01-31T05:34:35.867Z,77.21
2023-01-31T05:37:07.623Z,77.27
2023-01-31T05:39:38.673Z,77.38
2023-01-31T05:42:09.429Z,76.86
2023-01-31T05:44:40.055Z,77.17
2023-01-31T05:47:10.856Z,77.01
2023-01-31T05:49:41.925Z,77.43
2023-01-31T05:52:12.567Z,77.17
2023-01-31T05:54:43.204Z,77.32
2023-01-31T05:57:14.536Z,77.27
2023-01-31T05:59:45.368Z,77.49
2023-01-31T06:02:16.068Z,77.69
2023-01-31T06:04:47.205Z,77.37
2023-01-31T06:07:18.022Z,77.27
2023-01-31T06:09:48.706Z,77.82
2023-01-31T06:12:19.487Z,78.50
2023-01-31T06:14:50.587Z,77.79
2023-01-31T06:17:24.034Z,78.07
2023-01-31T06:19:54.853Z,77.87
2023-01-31T06:22:25.522Z,78.22
2023-01-31T06:24:56.188Z,78.48
2023-01-31T06:27:26.974Z,78.79
2023-01-31T06:29:58.000Z,78.69
2023-01-31T06:32:28.887Z,78.55
2023-01-31T06:34:59.548Z,78.78
2023-01-31T06:37:30.610Z,78.85
2023-01-31T06:40:01.214Z,78.63
2023-01-31T06:42:31.928Z,78.78
2023-01-31T06:45:02.661Z,87.26
2023-01-31T06:47:33.904Z,78.99
2023-01-31T06:50:05.107Z,77.74
2023-01-31T06:52:36.042Z,77.85
2023-01-31T06:55:08.004Z,77.95
2023-01-31T06:57:38.694Z,78.33
2023-01-31T07:00:13.300Z,78.21
2023-01-31T07:02:43.925Z,78.21
2023-01-31T07:05:14.722Z,78.44
2023-01-31T07:07:45.573Z,78.19
2023-01-31T07:10:16.580Z,78.60
2023-01-31T07:12:47.346Z,78.72
2023-01-31T07:15:18.902Z,78.51
2023-01-31T07:17:49.959Z,78.44
2023-01-31T07:20:21.187Z,78.21
2023-01-31T07:22:58.059Z,78.25
2023-01-31T07:25:32.388Z,78.22
2023-01-31T07:28:03.684Z,78.62
2023-01-31T07:30:34.561Z,78.17
2023-01-31T07:33:05.447Z,78.20
2023-01-31T07:35:36.081Z,77.81
2023-01-31T07:38:06.782Z,77.80
2023-01-31T07:40:37.651Z,77.89
2023-01-31T07:43:08.363Z,77.75
2023-01-31T07:45:42.755Z,77.94
2023-01-31T07:48:13.769Z,77.94
2023-01-31T07:50:44.633Z,78.03
2023-01-31T07:53:15.687Z,78.09
2023-01-31T07:55:47.653Z,78.06
2023-01-31T07:58:18.860Z,78.23
2023-01-31T08:01:07.130Z,78.12
2023-01-31T08:03:38.046Z,78.29
2023-01-31T08:06:11.526Z,77.94
2023-01-31T08:08:44.331Z,78.26
2023-01-31T08:11:15.418Z,78.32
2023-01-31T08:13:46.664Z,78.27
2023-01-31T08:16:17.906Z,78.09
2023-01-31T08:18:48.894Z,77.89
2023-01-31T08:21:20.015Z,77.85
2023-01-31T08:23:52.156Z,77.33
2023-01-31T08:26:24.373Z,76.88
2023-01-31T08:28:55.439Z,76.97
2023-01-31T08:31:29.471Z,76.43
2023-01-31T08:34:00.283Z,75.97
2023-01-31T08:36:32.978Z,75.49
2023-01-31T08:39:04.493Z,74.62
2023-01-31T08:41:37.116Z,73.61
2023-01-31T08:44:08.628Z,74.02
2023-01-31T08:46:41.125Z,73.49
2023-01-31T08:49:11.913Z,73.26
2023-01-31T08:51:43.174Z,72.96
2023-01-31T08:54:13.870Z,72.66
2023-01-31T08:56:44.692Z,72.45
2023-01-31T08:59:15.769Z,72.62
2023-01-31T09:01:46.799Z,72.50
2023-01-31T09:04:17.689Z,72.17
2023-01-31T09:06:48.432Z,71.70
2023-01-31T09:09:19.490Z,71.71
2023-01-31T09:11:50.216Z,71.25
2023-01-31T09:14:21.017Z,71.31
2023-01-31T09:16:52.443Z,71.19
2023-01-31T09:19:23.786Z,71.19
2023-01-31T09:21:54.686Z,70.86
2023-01-31T09:24:25.394Z,69.91
2023-01-31T09:26:56.702Z,70.18
2023-01-31T09:29:30.123Z,69.13
2023-01-31T09:32:01.126Z,69.00
2023-01-31T09:34:34.056Z,68.31
2023-01-31T09:37:04.801Z,67.96
2023-01-31T09:39:35.468Z,68.04
2023-01-31T09:42:18.341Z,67.23
2023-01-31T09:44:58.279Z,67.32
2023-01-31T09:47:33.307Z,67.45
2023-01-31T09:50:10.344Z,66.93
2023-01-31T09:52:41.957Z,67.16
2023-01-31T09:55:19.121Z,67.19
2023-01-31T09:57:58.662Z,67.00
2023-01-31T10:00:33.938Z,67.17
2023-01-31T10:03:29.760Z,67.06
2023-01-31T10:06:07.417Z,67.15
2023-01-31T10:08:46.728Z,66.38
2023-01-31T10:11:25.586Z,66.01
2023-01-31T10:13:59.678Z,65.41
2023-01-31T10:16:36.761Z,65.58
2023-01-31T10:19:13.097Z,65.73
2023-01-31T10:21:49.585Z,65.28
2023-01-31T10:24:26.411Z,65.72
2023-01-31T10:27:03.878Z,65.66
2023-01-31T10:29:41.941Z,66.08
2023-01-31T10:32:22.364Z,65.73
2023-01-31T10:35:00.741Z,65.52
2023-01-31T10:37:38.751Z,65.44
2023-01-31T10:40:17.567Z,65.62
2023-01-31T10:42:53.362Z,64.51
2023-01-31T10:45:31.396Z,64.64
2023-01-31T10:48:15.493Z,64.69
2023-01-31T10:50:59.285Z,64.85
2023-01-31T10:53:49.791Z,64.85
2023-01-31T10:56:30.026Z,64.53
2023-01-31T10:59:02.725Z,64.62
2023-01-31T11:01:35.299Z,64.68
2023-01-31T11:04:23.380Z,64.48
2023-01-31T11:06:55.118Z,64.38
2023-01-31T11:09:28.454Z,64.55
2023-01-31T11:12:01.413Z,64.80
2023-01-31T11:14:31.558Z,64.69
2023-01-31T11:17:05.786Z,64.58
2023-01-31T11:19:40.881Z,64.47
2023-01-31T11:22:19.833Z,64.47
2023-01-31T11:24:53.008Z,64.26
2023-01-31T11:27:34.052Z,64.38
2023-01-31T11:30:05.742Z,64.28
2023-01-31T11:32:44.535Z,64.53
2023-01-31T11:35:28.962Z,64.55
2023-01-31T11:38:01.578Z,64.28
2023-01-31T11:40:34.958Z,63.80
2023-01-31T11:43:07.529Z,64.20
2023-01-31T11:45:41.449Z,63.22
2023-01-31T11:48:19.751Z,63.52
2023-01-31T11:50:56.085Z,63.40
2023-01-31T11:53:29.890Z,63.39
2023-01-31T11:56:16.324Z,63.58
2023-01-31T11:58:50.973Z,63.68
2023-01-31T12:01:24.027Z,63.83
2023-01-31T12:04:03.525Z,63.38
2023-01-31T12:06:37.298Z,62.93
2023-01-31T12:09:19.085Z,62.82
2023-01-31T12:11:55.358Z,62.61
2023-01-31T12:14:36.881Z,62.32
2023-01-31T12:17:08.957Z,62.35
2023-01-31T12:19:51.061Z,62.39
2023-01-31T12:22:28.018Z,61.87
2023-01-31T12:25:16.045Z,62.25
2023-01-31T12:28:02.011Z,62.55
2023-01-31T12:30:53.343Z,62.61
2023-01-31T12:33:40.311Z,62.43
2023-01-31T12:36:30.346Z,61.81
2023-01-31T12:39:15.358Z,62.63
2023-01-31T12:41:48.147Z,62.47
2023-01-31T12:44:36.100Z,62.68
2023-01-31T12:47:37.395Z,63.03
2023-01-31T12:50:21.633Z,64.36
2023-01-31T12:53:06.420Z,65.33
2023-01-31T12:55:44.693Z,66.07
2023-01-31T12:58:29.780Z,66.66
2023-01-31T13:01:06.016Z,66.55
2023-01-31T13:03:51.527Z,66.72
2023-01-31T13:06:28.462Z,66.76
2023-01-31T13:09:08.542Z,67.12
2023-01-31T13:11:45.393Z,66.74
2023-01-31T13:14:21.397Z,66.82
2023-01-31T13:16:57.113Z,66.88
2023-01-31T13:19:34.799Z,67.02
2023-01-31T13:22:13.085Z,67.43
2023-01-31T13:24:48.334Z,67.79
2023-01-31T13:27:25.962Z,67.85
2023-01-31T13:30:01.489Z,68.56
2023-01-31T13:32:39.568Z,69.00
2023-01-31T13:35:19.503Z,70.21
2023-01-31T13:37:55.067Z,70.92
2023-01-31T13:40:30.140Z,71.49
2023-01-31T13:43:04.568Z,71.61
2023-01-31T13:45:39.915Z,71.92
2023-01-31T13:48:22.106Z,72.04
2023-01-31T13:50:57.133Z,72.12
2023-01-31T13:53:32.186Z,72.48
2023-01-31T13:56:05.578Z,72.42
2023-01-31T13:58:37.820Z,72.25
2023-01-31T14:01:14.358Z,72.42
2023-01-31T14:04:18.669Z,72.51
2023-01-31T14:07:13.478Z,72.47
2023-01-31T14:09:46.726Z,72.43
2023-01-31T14:12:37.689Z,72.43
2023-01-31T14:15:37.464Z,72.58
2023-01-31T14:18:11.159Z,72.96
2023-01-31T14:20:42.026Z,73.25
2023-01-31T14:23:31.394Z,73.26
2023-01-31T14:26:02.238Z,72.80
2023-01-31T14:28:33.375Z,73.28
2023-01-31T14:31:14.926Z,73.10
2023-01-31T14:33:50.522Z,73.08
2023-01-31T14:36:54.736Z,72.83
2023-01-31T14:40:09.517Z,73.13
2023-01-31T14:43:10.952Z,73.29
2023-01-31T14:45:59.562Z,72.96
2023-01-31T14:48:53.045Z,73.14
2023-01-31T14:51:29.800Z,73.08
2023-01-31T14:54:37.770Z,73.37
2023-01-31T14:57:18.633Z,73.31
2023-01-31T14:59:58.879Z,73.37
2023-01-31T15:02:50.083Z,73.44
2023-01-31T15:05:27.055Z,73.29
2023-01-31T15:08:35.023Z,73.55
2023-01-31T15:11:07.994Z,73.63
2023-01-31T15:13:47.192Z,73.62
2023-01-31T15:16:24.927Z,73.91
2023-01-31T15:19:08.332Z,73.88
2023-01-31T15:21:44.169Z,73.76
2023-01-31T15:24:21.615Z,73.85
2023-01-31T15:26:55.407Z,74.16
2023-01-31T15:29:30.233Z,74.05
2023-01-31T15:32:10.144Z,74.38
2023-01-31T15:34:47.276Z,74.19
2023-01-31T15:37:23.485Z,74.31
2023-01-31T15:39:59.281Z,74.45
2023-01-31T15:42:31.720Z,74.54
2023-01-31T15:45:31.910Z,74.18
2023-01-31T15:48:09.226Z,74.49
2023-01-31T15:50:51.741Z,74.61
2023-01-31T15:53:25.805Z,74.71
2023-01-31T15:55:59.695Z,74.68
2023-01-31T15:58:32.289Z,75.09
2023-01-31T16:01:04.676Z,75.06
2023-01-31T16:03:43.282Z,75.51
2023-01-31T16:06:24.760Z,75.45
2023-01-31T16:09:01.475Z,75.62
2023-01-31T16:11:36.042Z,75.67
2023-01-31T16:14:08.593Z,75.88
2023-01-31T16:16:39.661Z,75.88
2023-01-31T16:19:27.226Z,75.73
2023-01-31T16:21:58.726Z,75.99
2023-01-31T16:24:29.748Z,75.67
2023-01-31T16:27:03.394Z,75.68
2023-01-31T16:29:41.330Z,75.71
2023-01-31T16:32:21.334Z,75.46
2023-01-31T16:34:58.561Z,75.70
2023-01-31T16:37:38.621Z,75.67
2023-01-31T16:40:21.314Z,75.43
2023-01-31T16:43:08.999Z,75.67
2023-01-31T16:45:51.374Z,75.19
2023-01-31T16:48:31.768Z,75.31
2023-01-31T16:51:25.637Z,75.47
2023-01-31T16:54:26.392Z,75.39
2023-01-31T16:57:25.891Z,75.65
2023-01-31T16:59:57.163Z,75.33
2023-01-31T17:02:30.304Z,75.34
2023-01-31T17:05:09.408Z,75.28
2023-01-31T17:07:44.261Z,75.39
2023-01-31T17:10:23.829Z,75.57
2023-01-31T17:12:58.054Z,75.52
2023-01-31T17:15:28.697Z,75.98
2023-01-31T17:17:59.823Z,75.80
2023-01-31T17:20:30.471Z,76.39
2023-01-31T17:23:03.497Z,76.35
2023-01-31T17:25:36.518Z,76.59
2023-01-31T17:28:07.911Z,76.41
2023-01-31T17:30:45.170Z,76.17
2023-01-31T17:33:17.248Z,76.28
2023-01-31T17:35:49.091Z,76.78
2023-01-31T17:38:20.963Z,76.61
2023-01-31T17:40:53.276Z,76.93
2023-01-31T17:43:25.950Z,76.83
2023-01-31T17:45:56.617Z,76.62
2023-01-31T17:48:27.482Z,76.88
2023-01-31T17:50:58.279Z,76.87
2023-01-31T17:53:34.570Z,77.09
2023-01-31T17:56:09.560Z,77.12
2023-01-31T17:58:40.229Z,77.08
2023-01-31T18:01:14.428Z,77.27
2023-01-31T18:03:45.844Z,76.97
2023-01-31T18:06:16.880Z,76.69
2023-01-31T18:08:48.724Z,76.87
2023-01-31T18:11:20.396Z,76.49
2023-01-31T18:13:51.248Z,76.46
2023-01-31T18:16:22.307Z,76.66
2023-01-31T18:18:53.481Z,76.39
2023-01-31T18:21:25.547Z,76.01
2023-01-31T18:23:57.745Z,75.95
2023-01-31T18:26:28.980Z,75.54
2023-01-31T18:29:01.132Z,75.72
2023-01-31T18:31:31.999Z,75.52
2023-01-31T18:34:02.977Z,75.41
2023-01-31T18:36:33.651Z,74.91
2023-01-31T18:39:04.849Z,75.11
2023-01-31T18:41:35.516Z,74.91
2023-01-31T18:44:06.646Z,74.79
2023-01-31T18:46:38.609Z,74.86
2023-01-31T18:49:09.679Z,74.61
2023-01-31T18:51:41.736Z,74.85
2023-01-31T18:54:12.480Z,74.42
2023-01-31T18:56:43.611Z,74.41
2023-01-31T18:59:14.304Z,74.14
2023-01-31T19:01:45.049Z,73.88
2023-01-31T19:04:15.752Z,74.26
2023-01-31T19:06:46.814Z,74.27
2023-01-31T19:09:17.560Z,74.25
2023-01-31T19:11:48.323Z,73.91
2023-01-31T19:14:20.653Z,73.87
2023-01-31T19:16:51.379Z,73.50
2023-01-31T19:19:22.078Z,73.78
2023-01-31T19:21:53.191Z,73.59
2023-01-31T19:24:24.243Z,73.72
2023-01-31T19:26:55.208Z,73.54
2023-01-31T19:29:26.960Z,73.79
2023-01-31T19:31:59.305Z,73.70
2023-01-31T19:34:30.147Z,73.80
2023-01-31T19:37:00.999Z,73.59
2023-01-31T19:39:32.308Z,73.49
2023-01-31T19:42:03.655Z,73.76
2023-01-31T19:44:37.038Z,73.69
2023-01-31T19:47:08.543Z,73.60
2023-01-31T19:49:39.583Z,73.20
2023-01-31T19:52:10.822Z,73.32
2023-01-31T19:54:42.026Z,73.11
2023-01-31T19:57:12.736Z,73.20
2023-01-31T19:59:44.253Z,73.12
2023-01-31T20:02:15.385Z,73.00
2023-01-31T20:04:47.359Z,73.23
2023-01-31T20:07:18.201Z,73.27
2023-01-31T20:09:49.246Z,73.58
2023-01-31T20:12:20.109Z,73.76
2023-01-31T20:14:50.853Z,73.93
2023-01-31T20:17:21.763Z,73.93
2023-01-31T20:19:52.892Z,74.14
2023-01-31T20:22:24.692Z,74.05
2023-01-31T20:24:57.195Z,74.09
2023-01-31T20:27:28.408Z,74.55
2023-01-31T20:29:59.274Z,75.36
2023-01-31T20:32:31.748Z,75.85
2023-01-31T20:35:03.751Z,76.56
2023-01-31T20:37:34.830Z,76.88
2023-01-31T20:40:06.565Z,77.13
2023-01-31T20:42:37.468Z,77.44
2023-01-31T20:45:10.344Z,77.60
2023-01-31T20:47:41.119Z,77.49
2023-01-31T20:50:13.506Z,77.33
2023-01-31T20:52:44.215Z,77.02
2023-01-31T20:55:16.454Z,76.88
2023-01-31T20:57:50.139Z,76.90
2023-01-31T21:00:23.716Z,76.81
2023-01-31T21:02:54.635Z,76.94
2023-01-31T21:05:25.649Z,76.51
2023-01-31T21:07:56.231Z,76.62
2023-01-31T21:10:28.867Z,76.53
2023-01-31T21:12:59.468Z,76.51
2023-01-31T21:15:30.216Z,76.58
2023-01-31T21:18:01.046Z,76.82
2023-01-31T21:20:31.736Z,76.79
2023-01-31T21:23:02.395Z,76.84
2023-01-31T21:25:33.191Z,76.50
2023-01-31T21:28:03.978Z,76.71
2023-01-31T21:30:34.826Z,76.78
2023-01-31T21:33:06.145Z,77.18
2023-01-31T21:35:36.861Z,78.43
2023-01-31T21:38:07.599Z,78.76
2023-01-31T21:40:39.192Z,79.67
2023-01-31T21:43:09.816Z,79.15
2023-01-31T21:45:40.519Z,78.81
2023-01-31T21:48:32.057Z,78.75
2023-01-31T21:51:06.803Z,78.80
2023-01-31T21:53:38.171Z,78.49
2023-01-31T21:56:11.930Z,78.77
2023-01-31T21:58:43.424Z,78.54
2023-01-31T22:01:17.946Z,78.64
2023-01-31T22:03:50.346Z,78.60
2023-01-31T22:06:27.525Z,78.72
2023-01-31T22:09:01.454Z,78.42
2023-01-31T22:11:33.150Z,78.23
2023-01-31T22:14:05.945Z,77.92
2023-01-31T22:16:37.262Z,77.95
2023-01-31T22:19:08.424Z,77.81
2023-01-31T22:21:41.752Z,77.64
2023-01-31T22:24:13.353Z,77.42
2023-01-31T22:26:45.333Z,77.25
2023-01-31T22:29:17.109Z,77.24
2023-01-31T22:31:48.118Z,77.22
2023-01-31T22:34:19.356Z,77.08
2023-01-31T22:36:50.073Z,76.62
2023-01-31T22:39:20.957Z,76.41
2023-01-31T22:41:51.658Z,76.26
2023-01-31T22:44:22.559Z,76.23
2023-01-31T22:46:53.328Z,75.92
2023-01-31T22:49:24.201Z,75.85
2023-01-31T22:51:54.882Z,75.49
2023-01-31T22:54:25.668Z,75.19
2023-01-31T22:56:56.330Z,74.89
2023-01-31T22:59:27.196Z,74.74
2023-01-31T23:01:57.746Z,74.56
2023-01-31T23:04:28.512Z,73.88
2023-01-31T23:06:59.141Z,73.94
2023-01-31T23:09:29.951Z,74.03
2023-01-31T23:12:00.786Z,74.22
2023-01-31T23:14:32.102Z,74.17
2023-01-31T23:17:20.605Z,74.29
2023-01-31T23:19:51.278Z,74.16
2023-01-31T23:22:22.264Z,74.09
2023-01-31T23:24:53.030Z,73.99
2023-01-31T23:27:23.825Z,73.87
2023-01-31T23:29:54.539Z,73.92
2023-01-31T23:32:25.831Z,74.01
2023-01-31T23:34:56.965Z,73.91
2023-01-31T23:37:27.870Z,73.98
2023-01-31T23:39:58.484Z,74.03
2023-01-31T23:42:29.426Z,73.65
2023-01-31T23:45:00.126Z,73.72
2023-01-31T23:47:30.732Z,73.94
2023-01-31T23:50:01.675Z,73.78
2023-01-31T23:52:32.316Z,73.70
2023-01-31T23:55:03.059Z,73.74
2023-01-31T23:57:33.875Z,73.80
